logo
Games tagged Golf
# Game Release date
Price
Score rank
(Userscore / Metascore)
Owners
Players
Playtime (Median)
Developer(s)
Publisher(s)
1 Cursed to Golf Aug 18, 2022 $19.99N/A (N/A/80%)100,000 .. 200,0000%00:00 (00:00)Chuhai LabsThunderful Publishing
2 PGA TOUR 2K21 Aug 20, 2020 $59.99N/A (N/A/74%)200,000 .. 500,0000%00:00 (00:00)HB Studios Multimedia Ltd.2K
3 The Golf Club 2019 featuring PGA TOUR Aug 28, 2018 $49.99N/A (N/A/72%)50,000 .. 100,0000%00:00 (00:00)HB Studios Multimedia Ltd.2K
4 The Golf Club Aug 19, 2014 $29.99N/A (N/A/70%)100,000 .. 200,0000%00:00 (00:00)HB StudiosHB Studios
5 Super Inefficient Golf Mar 15, 2018 $4.99N/A (N/A/69%)20,000 .. 50,0000%00:00 (00:00)34BigThings srl34BigThings srl
6 Shot Online Jan 22, 2019 N/AN/A (N/A/59%)20,000 .. 50,0000%00:00 (00:00)WEBZEN ONNETWEBZEN
7 Dangerous Golf Jun 2, 2016 $19.99N/A (N/A/54%)100,000 .. 200,0000%00:00 (00:00)Three Fields EntertainmentThree Fields Entertainment
8 WGT Golf Apr 13, 2020 FreeN/A (N/A)200,000 .. 500,0000%00:00 (00:00)Topgolf MediaTopgolf Media
9 Dream Golf VR Nov 3, 2017 FreeN/A (N/A)100,000 .. 200,0000%00:00 (00:00)Isaac StearnsIsaac Stearns
10 The Golf Club 2 Jun 27, 2017 N/AN/A (N/A)50,000 .. 100,0000%00:00 (00:00)HB StudiosMaximum Games
11 AffordaGolf Online Dec 22, 2016 FreeN/A (N/A)50,000 .. 100,0000%00:00 (00:00)Oryzhon StudiosOryzhon Studios
12 MiniGolf Mania Mar 25, 2016 N/AN/A (N/A)20,000 .. 50,0000%00:00 (00:00)Road Turtle GamesAxis Games
13 EnviroGolf Jan 15, 2014 FreeN/A (N/A)0 .. 20,0000%00:00 (00:00)Seemingly PointlessSeemingly Pointless
14 Mini Putt Nov 12, 2022 $10.99N/A (N/A)0 .. 20,0000%00:00 (00:00)Glactic Pty LtdGlactic Pty Ltd
15 Open Course Oct 20, 2022 $1.99N/A (N/A)0 .. 20,0000%00:00 (00:00)The DevJoin Game
16 Disc Golf Online Oct 19, 2022 $14.99N/A (N/A)0 .. 20,0000%00:00 (00:00)Bear Feet GamesBear Feet Games
17 PGA TOUR 2K23 Oct 13, 2022 $38.99N/A (N/A)20,000 .. 50,00033.33%13:36 (06:48)HB Studios2K
18 Golfing In Aether Sep 23, 2022 $7.99N/A (N/A)0 .. 20,0000%00:00 (00:00)VetronVetron
19 Hole in the Clouds Aug 26, 2022 $2.99N/A (N/A)0 .. 20,0000%00:00 (00:00)OneDropOneDrop
20 Turbo Golf Racing Aug 4, 2022 $17.99N/A (N/A)20,000 .. 50,0000%00:00 (00:00)Hugecalf StudiosSecret Mode
21 Boxel Golf Aug 1, 2022 $2.99N/A (N/A)20,000 .. 50,0000%00:00 (00:00)Doppler CreativeDoppler Creative
22 Fore Score Jul 12, 2022 $7.99N/A (N/A)20,000 .. 50,0000%00:00 (00:00)Rudiment GamesRudiment Games
23 Mini Putt Camelot Jun 1, 2022 $9.99N/A (N/A)0 .. 20,0000%00:00 (00:00)Arctic ArcadeArctic Arcade
24 Golf Gang May 19, 2022 $9.99N/A (N/A)20,000 .. 50,0000%00:00 (00:00)Lazy Monday GamesCurve Games
25 Minigolf Adventure May 13, 2022 $0.49N/A (N/A)0 .. 20,0000%00:00 (00:00)Revulo GamesRevulo Games
26 Space Voyager Apr 28, 2022 $2.99N/A (N/A)20,000 .. 50,0000%00:00 (00:00)Double Dice GamesDouble Dice Games
27 Damien Crawford's Golf Experience 2022 Apr 26, 2022 $1.99N/A (N/A)0 .. 20,0000%00:00 (00:00)Cannibal InteractiveCannibal Interactive
28 Pinzzo Mar 21, 2022 $1.99N/A (N/A)0 .. 20,0000%00:00 (00:00)WellingtonWellington
29 Brendan Keogh's Putting Challenge Feb 24, 2022 $2.99N/A (N/A)0 .. 20,0000%00:00 (00:00)Brendan KeoghPaper House
30 Lunar Odyssey Feb 21, 2022 FreeN/A (N/A)0 .. 20,0000%00:00 (00:00)Fractal Blue EntertainmentVisual Purple Inc.
31 Mini Mini-Golf Jan 28, 2022 $9.99N/A (N/A)0 .. 20,0000%00:00 (00:00)Piece Of VoxelPiece Of Voxel
32 RPGolf Legends Jan 19, 2022 $29.99N/A (N/A)0 .. 20,0000%00:00 (00:00)ArticNetKEMCO
33 Mini Golf Worlds VR Jan 11, 2022 $4.99N/A (N/A)0 .. 20,0000%00:00 (00:00)Maple Hill GamesMaple Hill Games
34 Smoots Golf Nov 18, 2021 $9.99N/A (N/A)0 .. 20,0000%00:00 (00:00)Kaneda GamesJanduSoft
35 Knockball pool Nov 7, 2021 $2.99N/A (N/A)0 .. 20,0000%00:00 (00:00)LGT SIALGT SIA
36 A Little Golf Journey Oct 14, 2021 $19.99N/A (N/A)0 .. 20,0000%00:00 (00:00)OkidokicoPlaytonic Friends
37 Me Vs You Sep 24, 2021 $15.99N/A (N/A)20,000 .. 50,0000%00:00 (00:00)Amped HorizonAmped Horizon
38 Casual Golf Aug 16, 2021 $0.99N/A (N/A)50,000 .. 100,0000%00:00 (00:00)NikiGamesNikiGames
39 Eggy Jul 20, 2021 $10.99N/A (N/A)0 .. 20,0000%00:00 (00:00)Glenn VerheijKjoeb
40 Walkabout Mini Golf VR Jul 15, 2021 $14.99N/A (N/A)100,000 .. 200,0000%00:00 (00:00)Mighty CoconutMighty Coconut
41 Unreal Golf Jun 24, 2021 $0.99N/A (N/A)20,000 .. 50,0000%00:00 (00:00)Rex JuniorRex Junior
42 Disc Golf Valley Jun 9, 2021 $4.99N/A (N/A)0 .. 20,0000%00:00 (00:00)Latitude 64Latitude 64
43 Overlay Balls & Mouse Tails Jun 4, 2021 $1.99N/A (N/A)0 .. 20,0000%00:00 (00:00)SAG, SAGSAG
44 Brian the Brain Jun 3, 2021 $0.99N/A (N/A)0 .. 20,0000%00:00 (00:00)Richard BorgesRichard Borges
45 OGgolf May 29, 2021 $2.99N/A (N/A)0 .. 20,0000%00:00 (00:00)TecmibaTecmiba
46 Santa Soccer May 21, 2021 $0.99N/A (N/A)50,000 .. 100,0000%00:00 (00:00)Halara StudiosHalara Studios
47 Disc Golf Valley VR May 19, 2021 $19.99N/A (N/A)0 .. 20,0000%00:00 (00:00)Latitude 64Latitude 64
48 Golf With Your Grandmother May 6, 2021 $4.99N/A (N/A)0 .. 20,0000%00:00 (00:00)NevsramNevsram
49 Speedy Golf May 5, 2021 $14.99N/A (N/A)0 .. 20,0000%00:00 (00:00)Off The Deck GamesOff The Deck Games
50 Graviter Apr 8, 2021 $7.99N/A (N/A)0 .. 20,0000%00:00 (00:00)Emil MarkiewiczNo Gravity Games
51 GolfTopia Mar 30, 2021 $19.99N/A (N/A)20,000 .. 50,0000%00:00 (00:00)MinMax Games Ltd.MinMax Games Ltd.
52 Joon Shining Mar 19, 2021 $12.99N/A (N/A)0 .. 20,0000%00:00 (00:00)Orchid of RedemptionLamplight Forest
53 All-In-One Sports VR Feb 25, 2021 $19.99N/A (N/A)0 .. 20,0000%00:00 (00:00)Appnori Inc.Appnori Inc.
54 Golf Party Jan 29, 2021 $4.99N/A (N/A)0 .. 20,0000%00:00 (00:00)VoidFiller StudiosVoidFiller Studios
55 Macro golf Dec 14, 2020 $19.99N/A (N/A)0 .. 20,0000%00:00 (00:00)VitokVitok
56 Golf Around! Dec 4, 2020 $4.99N/A (N/A)20,000 .. 50,0000%00:00 (00:00)Steve HoughSteve Hough
57 Puzzling Peaks EXE Dec 1, 2020 $2.99N/A (N/A)0 .. 20,0000%00:00 (00:00)Darius Immanuel D. GuerreroAppSir Games
58 Off The Chains Disc Golf Nov 12, 2020 $14.99N/A (N/A)0 .. 20,0000%00:00 (00:00)Dream NerdyDream Nerdy
59 Fort Golf Sep 1, 2020 $2.99N/A (N/A)0 .. 20,0000%00:00 (00:00)Chromatic Junkyard StudiosChromatic Junkyard Studios
60 Mighty Fling Jul 20, 2020 $9.99N/A (N/A)0 .. 20,0000%00:00 (00:00)Hollow Art StudiosHollow Art Studios
61 Golf Masters Jul 13, 2020 $9.99N/A (N/A)0 .. 20,0000%00:00 (00:00)Ghost MachineGhost Machine
62 Golf On Mars Jul 3, 2020 $2.99N/A (N/A)0 .. 20,0000%00:00 (00:00)Captain GamesCaptain Games
63 Shuffs Jun 29, 2020 $2.99N/A (N/A)0 .. 20,0000%00:00 (00:00)Kyle HoskingNo Relation Games
64 Mini Golf Club May 29, 2020 $14.99N/A (N/A)0 .. 20,0000%00:00 (00:00)Obumo GamesObumo Games
65 Golf With Your Friends May 19, 2020 $14.99N/A (N/A)2,000,000 .. 5,000,0003.73%01:20 (00:58)Blacklight Interactive, Team17Team17
66 Just Like Golf May 15, 2020 $0.99N/A (N/A)0 .. 20,0000%00:00 (00:00)SÚRSPILSÚRSPIL
67 disc party Apr 30, 2020 $2.99N/A (N/A)0 .. 20,0000%00:00 (00:00)Sokpop CollectiveSokpop Collective
68 Perfect Round Disc Golf Mar 12, 2020 $19.99N/A (N/A)0 .. 20,0000%00:00 (00:00)Tree Branch GamesTree Branch Games
69 Cloudlands 2 Jan 17, 2020 $19.99N/A (N/A)0 .. 20,0000%00:00 (00:00)FuturetownFuturetown
70 Encore Card Games Collection Dec 20, 2019 $19.99N/A (N/A)0 .. 20,0000%00:00 (00:00)WebfootEncore Software
71 GOLF in PAPER Apr 5, 2019 $1.99N/A (N/A)0 .. 20,0000%00:00 (00:00)meokigamemeokigame
72 Bolf Nov 19, 2019 $7.99N/A (N/A)0 .. 20,0000%00:00 (00:00)SimTeneroSimTenero
73 Golf98 Oct 17, 2019 $0.99N/A (N/A)0 .. 20,0000%00:00 (00:00)Studio InwardStudio Inward
74 Angry Golf Sep 13, 2019 $0.49N/A (N/A)0 .. 20,0000%00:00 (00:00)Tero Lunkka, Ruskija game experienceTero Lunkka
75 Resort Boss: Golf Feb 14, 2019 $12.99N/A (N/A)20,000 .. 50,0000%00:00 (00:00)Gus MartinExcalibur Publishing
76 MiniGolf Mar 29, 2019 $2.99N/A (N/A)0 .. 20,0000%00:00 (00:00)Meridian93 StudioHH-Games
77 Puttin' Around Mar 6, 2019 $4.99N/A (N/A)0 .. 20,0000%00:00 (00:00)Better Games LLCBetter Games LLC
78 Mini Golf Buddies Dec 18, 2018 $4.99N/A (N/A)0 .. 20,0000%00:00 (00:00)Obumo GamesObumo Games
79 Golf Peaks Nov 13, 2018 $2.49N/A (N/A)20,000 .. 50,0000%00:00 (00:00)AfterburnAfterburn
80 Nice Shot! The Gun Golfing Game Nov 9, 2018 $6.99N/A (N/A)0 .. 20,0000%00:00 (00:00)PolyGryph StudiosPolyGryph Studios
81 Cheap Golf Nov 5, 2018 $4.99N/A (N/A)20,000 .. 50,0000%00:00 (00:00)PixeljamPixeljam
82 Wonder Wickets Oct 17, 2018 $9.99N/A (N/A)0 .. 20,0000%00:00 (00:00)Rightstick StudiosRightstick Studios
83 The Master Club Oct 11, 2018 $4.99N/A (N/A)0 .. 20,0000%00:00 (00:00)Midi CreationsMidi Creations
84 Tee Time Golf Aug 31, 2018 $9.99N/A (N/A)20,000 .. 50,0000%00:00 (00:00)Barkers Crest Studio LLCBarkers Crest Studio LLC
85 Arcane Golf Jul 26, 2018 $2.99N/A (N/A)0 .. 20,0000%00:00 (00:00)FromLefcourt, thatgregperkinsFromLefcourt, thatgregperkins
86 Golf Galore Jul 12, 2018 $0.99N/A (N/A)50,000 .. 100,0000%00:00 (00:00)Golf Around Studio (Legacy)Golf Around Studio (Legacy)
87 Super Golf 2018 Jun 11, 2018 $3.99N/A (N/A)20,000 .. 50,0000%00:00 (00:00)Bullid GamesBullid Games
88 RPGolf May 9, 2018 $3.99N/A (N/A)0 .. 20,0000%00:00 (00:00)ArticNetChorus Worldwide Games
89 Mini Golf Arena Apr 21, 2018 $8.99N/A (N/A)20,000 .. 50,0000%00:00 (00:00)Evoluta StudioEvoluta Studio
90 Nicky - The Home Alone Golf Ball Apr 13, 2018 $0.99N/A (N/A)0 .. 20,0000%00:00 (00:00)MinimallabMinimallab
91 Trivia Vault: Golf Trivia Mar 29, 2018 $9.99N/A (N/A)0 .. 20,0000%00:00 (00:00)Ripknot SystemsRipknot Systems
92 Golfing Over It with Alva Majo Mar 28, 2018 $4.99N/A (N/A)100,000 .. 200,0000%00:00 (00:00)MajorariattoMajorariatto
93 Platform Golf Jan 2, 2018 $0.99N/A (N/A)0 .. 20,0000%00:00 (00:00)Patrick HofmannBytecrunch
94 Desert Golfing Sep 1, 2014 $1.99N/A (N/A)0 .. 20,0000%00:00 (00:00)Captain GamesCaptain Games
95 Ballistic Mini Golf Oct 24, 2017 $4.99N/A (N/A)0 .. 20,0000%00:00 (00:00)Microlith GamesMicrolith Games
96 Golf 2D Oct 17, 2017 $1.99N/A (N/A)20,000 .. 50,0000%00:00 (00:00)RewindAppRewindApp
97 DOG GONE GOLFING Aug 25, 2017 $4.99N/A (N/A)0 .. 20,0000%00:00 (00:00)Vagabond DogVagabond Dog
98 Infinite Minigolf Jul 25, 2017 $14.99N/A (N/A)20,000 .. 50,0000%00:00 (00:00)Zen StudiosZen Studios
99 Everyday Golf VR Jul 12, 2017 $14.99N/A (N/A)0 .. 20,0000%00:00 (00:00)WISECATWISECAT
100 Virtual Islands Sep 9, 2016 $3.99N/A (N/A)0 .. 20,0000%00:00 (00:00)Tim McCullochTim McCulloch
101 Golf for Workgroups Apr 6, 2017 $4.99N/A (N/A)0 .. 20,0000%00:00 (00:00)Cryptic SeaDevolver Digital
102 100ft Robot Golf Mar 16, 2017 $9.99N/A (N/A)20,000 .. 50,0000%00:00 (00:00)No GoblinNo Goblin
103 The Golf Club VR Feb 24, 2017 $9.99N/A (N/A)0 .. 20,0000%00:00 (00:00)HB StudiosHB Studios
104 Golf It! Feb 17, 2017 $8.99N/A (N/A)1,000,000 .. 2,000,0000.65%02:27 (00:49)Perfuse EntertainmentPerfuse Entertainment
105 Party Golf Oct 25, 2016 $14.99N/A (N/A)0 .. 20,0000%00:00 (00:00)Giant MargaritaGiant Margarita
106 Autumn Park Mini Golf Apr 2, 2015 $1.99N/A (N/A)0 .. 20,0000%00:00 (00:00)Serious TangentsSerious Tangents
107 Moonshot Galaxy Aug 24, 2016 $4.99N/A (N/A)0 .. 20,0000%00:00 (00:00)Liftoff LabsBig Fish Games
108 Mini Golf Mundo May 10, 2016 $2.99N/A (N/A)50,000 .. 100,0000%00:00 (00:00)EnsenaSoftEnsenaSoft
109 Perfect Golf May 3, 2016 $34.99N/A (N/A)100,000 .. 200,0000%00:00 (00:00)PERFECT PARALLELPerfect.Golf, Inc.
110 Cloudlands : VR Minigolf Apr 5, 2016 $19.99N/A (N/A)0 .. 20,0000%00:00 (00:00)FuturetownFuturetown
111 Star Balls Aug 18, 2015 $4.99N/A (N/A)0 .. 20,0000%00:00 (00:00)Bolder GamesBolder Games
112 3D MiniGolf May 29, 2015 $4.99N/A (N/A)0 .. 20,0000%00:00 (00:00)Z-Software GmbHfamilyplay
113 Worms Crazy Golf Oct 19, 2011 $9.99N/A (N/A)200,000 .. 500,0000%00:00 (00:00)Team17 Digital LtdTeam17 Digital Ltd
114 3D Ultra Minigolf Adventures Jul 23, 2009 $9.99N/A (N/A)0 .. 20,0000%00:00 (00:00)Wanako GamesActivision
Overview

Golf

Games with this tag: 114
Average userscore: N/A%
Average metascore: 68.29%
Average playtime: 05:48
Total copies owned: 7,636,000
Average price: $9.76
Help

Owners: Estimated number of people owning this game. The number might be way too small for new releases and sometimes way too big for games that had free weekend event recently. Read more on About page.

Playtime: Average hours played in total per person that have actually launched this game since March 2009. This time is calculated for the whole lifetime, not for the particular year.

Average score: Average users and metacritic score for all games with this score assigned.

Average playtime: Average lifetime playtime for all games where this data is available.

Games in this genre: Self-explaining - number of games with this tag. Only inculdes games with sales data available.

Total copies owned: Refers to total copies of games with this tag acquired by users for the lifetime. Includes copies sold, downloaded for free and given out.

This number might be too small for recently released games or too big for games that had a free weekend in the last couple of months.

Graphs

Login required.

Please register or log in to see this information.

Login required.

Please register or log in to see this information.